createdAt,value
2023-04-30T00:01:15.002Z,45.37
2023-04-30T00:03:48.480Z,45.47
2023-04-30T00:06:21.268Z,45.35
2023-04-30T00:08:54.313Z,45.25
2023-04-30T00:11:27.230Z,45.19
2023-04-30T00:14:00.566Z,45.29
2023-04-30T00:16:34.081Z,45.19
2023-04-30T00:19:07.302Z,45.33
2023-04-30T00:21:40.296Z,45.33
2023-04-30T00:24:13.250Z,45.27
2023-04-30T00:26:46.422Z,45.45
2023-04-30T00:29:19.179Z,45.27
2023-04-30T00:31:52.141Z,45.23
2023-04-30T00:34:25.384Z,45.18
2023-04-30T00:36:58.147Z,45.33
2023-04-30T00:39:31.184Z,45.17
2023-04-30T00:42:04.304Z,45.32
2023-04-30T00:44:37.213Z,45.28
2023-04-30T00:47:10.300Z,45.41
2023-04-30T00:49:43.226Z,45.24
2023-04-30T00:52:16.226Z,45.21
2023-04-30T00:54:49.346Z,45.40
2023-04-30T00:57:22.149Z,45.29
2023-04-30T00:59:55.447Z,45.22
2023-04-30T01:02:28.300Z,45.25
2023-04-30T01:05:01.093Z,45.19
2023-04-30T01:07:34.210Z,45.22
2023-04-30T01:10:07.130Z,45.23
2023-04-30T01:12:40.454Z,45.27
2023-04-30T01:15:13.357Z,45.32
2023-04-30T01:17:46.458Z,45.26
2023-04-30T01:20:19.213Z,45.26
2023-04-30T01:22:52.387Z,45.37
2023-04-30T01:25:25.126Z,45.43
2023-04-30T01:27:58.402Z,45.44
2023-04-30T01:30:37.590Z,45.36
2023-04-30T01:33:11.133Z,45.57
2023-04-30T01:35:44.284Z,45.49
2023-04-30T01:38:17.225Z,45.38
2023-04-30T01:40:50.241Z,45.48
2023-04-30T01:43:23.308Z,45.47
2023-04-30T01:45:56.482Z,45.52
2023-04-30T01:48:29.239Z,45.43
2023-04-30T01:51:02.490Z,45.60
2023-04-30T01:53:35.472Z,45.66
2023-04-30T01:56:08.123Z,45.55
2023-04-30T01:58:41.440Z,45.55
2023-04-30T02:01:14.287Z,45.63
2023-04-30T02:03:47.540Z,45.62
2023-04-30T02:06:20.344Z,45.74
2023-04-30T02:08:53.433Z,45.66
2023-04-30T02:11:28.202Z,45.65
2023-04-30T02:14:01.526Z,45.73
2023-04-30T02:16:34.567Z,45.58
2023-04-30T02:19:07.508Z,45.58
2023-04-30T02:21:40.431Z,45.77
2023-04-30T02:24:13.545Z,45.66
2023-04-30T02:26:46.538Z,45.68
2023-04-30T02:29:19.559Z,45.57
2023-04-30T02:31:52.654Z,45.55
2023-04-30T02:34:25.318Z,45.66
2023-04-30T02:36:58.570Z,45.57
2023-04-30T02:39:31.454Z,45.54
2023-04-30T02:42:04.202Z,45.55
2023-04-30T02:44:37.372Z,45.66
2023-04-30T02:47:10.368Z,45.66
2023-04-30T02:49:43.501Z,45.55
2023-04-30T02:52:16.320Z,45.57
2023-04-30T02:54:49.392Z,45.57
2023-04-30T02:57:22.330Z,45.58
2023-04-30T02:59:55.670Z,45.76
2023-04-30T03:02:28.609Z,45.67
2023-04-30T03:05:01.485Z,45.73
2023-04-30T03:07:34.518Z,45.63
2023-04-30T03:10:07.511Z,45.65
2023-04-30T03:12:40.569Z,45.75
2023-04-30T03:15:13.616Z,45.67
2023-04-30T03:17:52.568Z,45.62
2023-04-30T03:20:25.371Z,45.65
2023-04-30T03:22:58.404Z,45.66
2023-04-30T03:25:31.708Z,45.72
2023-04-30T03:28:05.272Z,45.61
2023-04-30T03:30:38.439Z,45.69
2023-04-30T03:33:11.450Z,45.76
2023-04-30T03:35:58.617Z,45.62
2023-04-30T03:38:31.631Z,45.65
2023-04-30T03:41:04.480Z,45.63
2023-04-30T03:43:37.454Z,45.67
2023-04-30T03:46:10.665Z,45.68
2023-04-30T03:48:43.597Z,45.71
2023-04-30T03:51:16.452Z,45.63
2023-04-30T03:53:49.377Z,45.58
2023-04-30T03:56:22.422Z,45.67
2023-04-30T03:58:55.453Z,45.58
2023-04-30T04:01:28.539Z,45.70
2023-04-30T04:04:01.380Z,45.65
2023-04-30T04:06:34.406Z,45.62
2023-04-30T04:09:07.339Z,45.70
2023-04-30T04:11:40.348Z,45.60
2023-04-30T04:14:13.489Z,45.53
2023-04-30T04:16:46.754Z,45.62
2023-04-30T04:19:19.466Z,45.59
2023-04-30T04:21:52.601Z,45.55
2023-04-30T04:24:25.461Z,45.66
2023-04-30T04:27:04.433Z,45.63
2023-04-30T04:29:37.479Z,45.64
2023-04-30T04:32:10.389Z,45.54
2023-04-30T04:34:43.649Z,45.59
2023-04-30T04:37:16.538Z,45.69
2023-04-30T04:39:49.499Z,45.64
2023-04-30T04:42:22.693Z,45.68
2023-04-30T04:44:55.411Z,45.75
2023-04-30T04:47:42.627Z,45.76
2023-04-30T04:50:15.778Z,45.65
2023-04-30T04:52:48.524Z,45.75
2023-04-30T04:55:21.524Z,45.67
2023-04-30T04:57:54.508Z,45.66
2023-04-30T05:00:27.885Z,45.70
2023-04-30T05:03:01.807Z,45.63
2023-04-30T05:05:34.664Z,45.75
2023-04-30T05:08:10.295Z,45.67
2023-04-30T05:10:43.722Z,45.66
2023-04-30T05:13:16.752Z,45.77
2023-04-30T05:15:49.564Z,45.76
2023-04-30T05:18:22.706Z,45.70
2023-04-30T05:20:55.579Z,45.83
2023-04-30T05:23:28.552Z,45.69
2023-04-30T05:26:01.631Z,45.63
2023-04-30T05:28:34.612Z,45.67
2023-04-30T05:31:07.431Z,45.69
2023-04-30T05:33:40.738Z,45.69
2023-04-30T05:36:13.996Z,45.69
2023-04-30T05:38:47.730Z,45.78
2023-04-30T05:41:20.568Z,45.76
2023-04-30T05:43:53.834Z,45.63
2023-04-30T05:46:26.690Z,45.65
2023-04-30T05:48:59.671Z,45.70
2023-04-30T05:51:32.838Z,45.73
2023-04-30T05:54:05.486Z,45.78
2023-04-30T05:56:38.871Z,45.65
2023-04-30T05:59:11.565Z,45.79
2023-04-30T06:01:44.536Z,45.81
2023-04-30T06:04:17.925Z,45.66
2023-04-30T06:06:50.877Z,45.74
2023-04-30T06:09:23.893Z,45.75
2023-04-30T06:11:56.532Z,45.79
2023-04-30T06:14:29.523Z,45.86
2023-04-30T06:17:02.777Z,45.73
2023-04-30T06:19:35.723Z,45.79
2023-04-30T06:22:08.776Z,45.73
2023-04-30T06:24:41.866Z,45.71
2023-04-30T06:27:14.904Z,45.72
2023-04-30T06:29:47.549Z,45.72
2023-04-30T06:32:26.870Z,45.79
2023-04-30T06:34:59.849Z,45.74
2023-04-30T06:37:33.563Z,45.72
2023-04-30T06:40:05.838Z,45.75
2023-04-30T06:42:39.014Z,45.65
2023-04-30T06:45:12.722Z,45.71
2023-04-30T06:47:45.934Z,45.68
2023-04-30T06:50:18.592Z,45.71
2023-04-30T06:52:51.548Z,45.76
2023-04-30T06:55:27.478Z,45.78
2023-04-30T06:58:00.685Z,45.79
2023-04-30T07:00:33.574Z,45.73
2023-04-30T07:03:06.676Z,45.74
2023-04-30T07:05:40.059Z,45.77
2023-04-30T07:08:12.600Z,45.73
2023-04-30T07:10:45.696Z,45.73
2023-04-30T07:13:18.714Z,45.72
2023-04-30T07:15:51.827Z,45.70
2023-04-30T07:18:25.473Z,45.69
2023-04-30T07:20:58.757Z,45.71
2023-04-30T07:23:31.985Z,45.71
2023-04-30T07:26:04.593Z,45.73
2023-04-30T07:28:37.785Z,45.79
2023-04-30T07:31:10.680Z,45.72
2023-04-30T07:33:43.784Z,45.76
2023-04-30T07:36:16.684Z,45.76
2023-04-30T07:38:49.801Z,45.78
2023-04-30T07:41:22.801Z,45.73
2023-04-30T07:43:55.723Z,45.72
2023-04-30T07:46:28.845Z,45.73
2023-04-30T07:49:01.811Z,45.78
2023-04-30T07:51:34.818Z,45.74
2023-04-30T07:54:07.654Z,45.78
2023-04-30T07:56:40.692Z,45.74
2023-04-30T07:59:13.664Z,45.76
2023-04-30T08:01:46.795Z,45.74
2023-04-30T08:04:19.714Z,45.76
2023-04-30T08:06:52.662Z,45.78
2023-04-30T08:09:25.840Z,45.72
2023-04-30T08:11:58.871Z,44.94
2023-04-30T08:14:31.747Z,41.62
2023-04-30T08:17:05.040Z,41.14
2023-04-30T08:19:37.827Z,40.51
2023-04-30T08:22:11.053Z,40.64
2023-04-30T08:24:44.026Z,41.08
2023-04-30T08:27:17.192Z,41.64
2023-04-30T08:29:51.072Z,42.48
2023-04-30T08:32:24.183Z,42.98
2023-04-30T08:34:57.154Z,43.19
2023-04-30T08:37:29.980Z,43.34
2023-04-30T08:40:03.037Z,43.44
2023-04-30T08:42:36.092Z,43.51
2023-04-30T08:45:08.977Z,43.61
2023-04-30T08:47:42.209Z,43.72
2023-04-30T08:50:15.055Z,43.74
2023-04-30T08:52:48.115Z,43.86
2023-04-30T08:55:22.086Z,43.86
2023-04-30T08:58:09.156Z,43.95
2023-04-30T09:00:42.182Z,43.98
2023-04-30T09:03:15.223Z,44.00
2023-04-30T09:05:48.075Z,44.03
2023-04-30T09:08:21.181Z,44.07
2023-04-30T09:10:54.290Z,44.10
2023-04-30T09:13:28.047Z,44.06
2023-04-30T09:16:01.032Z,44.08
2023-04-30T09:18:34.130Z,44.08
2023-04-30T09:21:07.117Z,44.08
2023-04-30T09:23:40.148Z,44.13
2023-04-30T09:26:13.144Z,44.14
2023-04-30T09:28:47.106Z,44.15
2023-04-30T09:31:19.930Z,44.17
2023-04-30T09:33:54.225Z,44.17
2023-04-30T09:36:28.193Z,44.22
2023-04-30T09:39:01.128Z,44.28
2023-04-30T09:41:33.817Z,44.28
2023-04-30T09:44:06.800Z,44.26
2023-04-30T09:46:40.141Z,44.31
2023-04-30T09:49:13.164Z,44.37
2023-04-30T09:51:45.942Z,44.40
2023-04-30T09:54:19.009Z,44.42
2023-04-30T09:56:52.153Z,44.43
2023-04-30T09:59:24.821Z,44.42
2023-04-30T10:01:57.950Z,44.41
2023-04-30T10:04:30.837Z,44.40
2023-04-30T10:07:04.124Z,44.43
2023-04-30T10:09:37.076Z,44.43
2023-04-30T10:12:09.844Z,44.44
2023-04-30T10:14:43.341Z,44.42
2023-04-30T10:17:17.312Z,44.44
2023-04-30T10:19:50.889Z,44.40
2023-04-30T10:22:24.001Z,44.43
2023-04-30T10:24:57.348Z,44.42
2023-04-30T10:27:29.938Z,44.42
2023-04-30T10:30:02.868Z,44.42
2023-04-30T10:32:36.075Z,44.42
2023-04-30T10:35:09.054Z,44.41
2023-04-30T10:37:42.031Z,44.44
2023-04-30T10:40:15.086Z,44.44
2023-04-30T10:42:48.192Z,44.42
2023-04-30T10:45:21.310Z,44.46
2023-04-30T10:47:54.245Z,44.45
2023-04-30T10:50:27.256Z,44.46
2023-04-30T10:53:00.258Z,44.45
2023-04-30T10:55:33.288Z,44.46
2023-04-30T10:58:06.203Z,44.50
2023-04-30T11:00:39.339Z,44.48
2023-04-30T11:03:12.406Z,44.52
2023-04-30T11:05:44.907Z,44.47
2023-04-30T11:08:18.109Z,44.52
2023-04-30T11:10:51.176Z,44.50
2023-04-30T11:13:23.935Z,44.53
2023-04-30T11:15:57.488Z,44.52
2023-04-30T11:18:30.943Z,44.51
2023-04-30T11:21:03.943Z,44.47
2023-04-30T11:23:41.735Z,44.47
2023-04-30T11:26:10.081Z,44.49
2023-04-30T11:28:43.055Z,44.48
2023-04-30T11:31:16.227Z,44.47
2023-04-30T11:33:49.111Z,44.46
2023-04-30T11:36:22.222Z,44.45
2023-04-30T11:38:55.293Z,44.43
2023-04-30T11:41:28.315Z,44.43
2023-04-30T11:44:01.171Z,44.42
2023-04-30T11:46:34.366Z,44.46
2023-04-30T11:49:07.255Z,44.44
2023-04-30T11:51:40.166Z,44.42
2023-04-30T11:54:13.184Z,44.43
2023-04-30T11:56:46.421Z,44.47
2023-04-30T11:59:19.307Z,44.43
2023-04-30T12:01:52.166Z,44.42
2023-04-30T12:04:25.206Z,44.45
2023-04-30T12:06:58.168Z,44.42
2023-04-30T12:09:31.259Z,44.40
2023-04-30T12:12:04.060Z,44.43
2023-04-30T12:14:37.164Z,44.39
2023-04-30T12:17:10.045Z,44.40
2023-04-30T12:19:43.202Z,44.42
2023-04-30T12:22:16.488Z,44.41
2023-04-30T12:24:50.288Z,44.44
2023-04-30T12:27:23.558Z,44.43
2023-04-30T12:29:57.570Z,44.43
2023-04-30T12:32:30.379Z,44.42
2023-04-30T12:35:03.065Z,44.41
2023-04-30T12:37:36.264Z,44.41
2023-04-30T12:40:23.149Z,44.42
2023-04-30T12:42:56.431Z,44.39
2023-04-30T12:45:29.101Z,44.39
2023-04-30T12:48:02.260Z,44.42
2023-04-30T12:50:35.182Z,44.39
2023-04-30T12:53:08.094Z,44.39
2023-04-30T12:55:41.054Z,44.39
2023-04-30T12:58:14.173Z,44.39
2023-04-30T13:00:47.134Z,44.40
2023-04-30T13:03:20.360Z,44.40
2023-04-30T13:05:53.094Z,44.42
2023-04-30T13:08:26.146Z,44.36
2023-04-30T13:10:59.432Z,44.29
2023-04-30T13:13:36.312Z,44.20
2023-04-30T13:16:09.519Z,44.15
2023-04-30T13:18:42.533Z,44.09
2023-04-30T13:21:15.572Z,44.06
2023-04-30T13:23:53.571Z,44.00
2023-04-30T13:26:22.501Z,43.97
2023-04-30T13:28:55.494Z,43.91
2023-04-30T13:31:32.469Z,43.90
2023-04-30T13:34:19.405Z,43.90
2023-04-30T13:36:52.343Z,43.84
2023-04-30T13:39:25.418Z,43.82
2023-04-30T13:41:58.507Z,43.78
2023-04-30T13:44:31.502Z,43.76
2023-04-30T13:47:04.544Z,43.77
2023-04-30T13:49:37.533Z,43.73
2023-04-30T13:52:10.392Z,43.71
2023-04-30T13:54:43.420Z,43.71
2023-04-30T13:57:16.505Z,43.71
2023-04-30T13:59:49.588Z,43.71
2023-04-30T14:02:22.662Z,43.66
2023-04-30T14:05:05.041Z,43.63
2023-04-30T14:07:43.311Z,43.63
2023-04-30T14:10:16.284Z,43.60
2023-04-30T14:12:49.573Z,43.62
2023-04-30T14:15:22.206Z,43.62
2023-04-30T14:17:55.632Z,43.60
2023-04-30T14:20:28.220Z,43.60
2023-04-30T14:23:02.894Z,43.58
2023-04-30T14:25:35.349Z,43.56
2023-04-30T14:28:10.292Z,43.57
2023-04-30T14:30:43.792Z,43.57
2023-04-30T14:33:17.495Z,43.57
2023-04-30T14:35:50.373Z,43.55
2023-04-30T14:38:23.204Z,43.53
2023-04-30T14:40:57.470Z,43.51
2023-04-30T14:43:30.234Z,43.51
2023-04-30T14:46:03.338Z,43.45
2023-04-30T14:48:36.453Z,43.43
2023-04-30T14:51:09.542Z,43.53
2023-04-30T14:53:42.591Z,43.70
2023-04-30T14:56:15.396Z,43.79
2023-04-30T14:58:48.490Z,43.80
2023-04-30T15:01:21.441Z,43.83
2023-04-30T15:03:54.724Z,43.93
2023-04-30T15:06:27.622Z,43.95
2023-04-30T15:09:00.635Z,44.01
2023-04-30T15:11:33.398Z,44.04
2023-04-30T15:14:06.541Z,44.09
2023-04-30T15:16:39.738Z,44.11
2023-04-30T15:19:12.461Z,44.15
2023-04-30T15:21:46.979Z,44.17
2023-04-30T15:24:18.683Z,44.21
2023-04-30T15:26:51.458Z,44.24
2023-04-30T15:29:24.320Z,44.24
2023-04-30T15:31:57.686Z,44.28
2023-04-30T15:34:30.324Z,44.29
2023-04-30T15:37:03.303Z,44.25
2023-04-30T15:39:36.430Z,44.29
2023-04-30T15:42:23.420Z,44.28
2023-04-30T15:44:56.360Z,44.28
2023-04-30T15:47:29.681Z,44.33
2023-04-30T15:50:02.775Z,44.33
2023-04-30T15:52:37.062Z,44.40
2023-04-30T15:55:08.490Z,44.41
2023-04-30T15:57:41.760Z,44.42
2023-04-30T16:00:14.708Z,44.45
2023-04-30T16:02:48.041Z,44.49
2023-04-30T16:05:21.650Z,44.21
2023-04-30T16:07:54.515Z,44.06
2023-04-30T16:10:27.594Z,44.05
2023-04-30T16:13:00.714Z,43.99
2023-04-30T16:15:33.657Z,43.97
2023-04-30T16:18:06.561Z,43.98
2023-04-30T16:20:39.527Z,44.00
2023-04-30T16:23:12.550Z,44.01
2023-04-30T16:25:45.731Z,44.01
2023-04-30T16:28:18.717Z,44.05
2023-04-30T16:30:51.582Z,44.05
2023-04-30T16:33:24.602Z,44.06
2023-04-30T16:35:57.393Z,44.04
2023-04-30T16:38:30.426Z,44.01
2023-04-30T16:41:03.609Z,43.99
2023-04-30T16:43:36.728Z,43.96
2023-04-30T16:46:09.707Z,43.93
2023-04-30T16:48:42.804Z,43.89
2023-04-30T16:51:15.430Z,43.85
2023-04-30T16:53:48.578Z,43.83
2023-04-30T16:56:21.671Z,43.86
2023-04-30T16:58:54.704Z,44.01
2023-04-30T17:01:27.781Z,43.97
2023-04-30T17:04:00.790Z,43.98
2023-04-30T17:06:33.563Z,44.01
2023-04-30T17:09:06.484Z,43.99
2023-04-30T17:11:39.758Z,43.90
2023-04-30T17:14:12.584Z,43.83
2023-04-30T17:16:59.348Z,43.69
2023-04-30T17:19:32.859Z,43.60
2023-04-30T17:22:05.472Z,43.51
2023-04-30T17:24:38.824Z,43.40
2023-04-30T17:27:11.813Z,43.38
2023-04-30T17:29:44.784Z,43.31
2023-04-30T17:32:17.757Z,43.31
2023-04-30T17:34:50.497Z,43.27
2023-04-30T17:37:23.886Z,43.17
2023-04-30T17:39:57.063Z,43.15
2023-04-30T17:42:29.486Z,43.10
2023-04-30T17:45:02.485Z,43.09
2023-04-30T17:47:35.708Z,42.99
2023-04-30T17:50:08.642Z,42.93
2023-04-30T17:52:41.510Z,42.83
2023-04-30T17:55:14.638Z,42.81
2023-04-30T17:57:47.663Z,42.76
2023-04-30T18:00:20.744Z,42.70
2023-04-30T18:02:53.715Z,42.63
2023-04-30T18:05:27.095Z,42.60
2023-04-30T18:08:00.791Z,42.56
2023-04-30T18:10:33.734Z,42.54
2023-04-30T18:13:06.901Z,42.49
2023-04-30T18:15:39.691Z,42.54
2023-04-30T18:18:12.701Z,42.51
2023-04-30T18:20:45.822Z,42.47
2023-04-30T18:23:18.667Z,42.42
2023-04-30T18:25:52.720Z,42.33
2023-04-30T18:28:25.551Z,42.42
2023-04-30T18:30:58.904Z,42.38
2023-04-30T18:33:31.614Z,42.33
2023-04-30T18:36:05.738Z,42.32
2023-04-30T18:38:37.789Z,42.29
2023-04-30T18:41:10.596Z,42.27
2023-04-30T18:43:43.580Z,42.29
2023-04-30T18:46:16.827Z,42.31
2023-04-30T18:48:49.763Z,42.42
2023-04-30T18:51:22.605Z,42.52
2023-04-30T18:53:55.891Z,42.53
2023-04-30T18:56:28.603Z,42.61
2023-04-30T18:59:01.591Z,42.64
2023-04-30T19:01:35.714Z,42.73
2023-04-30T19:04:08.615Z,42.75
2023-04-30T19:06:41.783Z,42.81
2023-04-30T19:09:14.618Z,42.86
2023-04-30T19:11:47.787Z,42.91
2023-04-30T19:14:20.753Z,42.93
2023-04-30T19:16:57.111Z,42.96
2023-04-30T19:19:29.710Z,42.97
2023-04-30T19:22:02.799Z,43.04
2023-04-30T19:24:35.863Z,43.03
2023-04-30T19:27:08.818Z,43.07
2023-04-30T19:29:41.862Z,43.11
2023-04-30T19:32:14.675Z,43.12
2023-04-30T19:34:47.663Z,43.16
2023-04-30T19:37:20.801Z,43.19
2023-04-30T19:39:55.165Z,43.20
2023-04-30T19:42:30.848Z,43.20
2023-04-30T19:45:03.669Z,43.21
2023-04-30T19:47:37.080Z,43.05
2023-04-30T19:50:09.691Z,43.19
2023-04-30T19:52:42.927Z,43.16
2023-04-30T19:55:16.226Z,43.19
2023-04-30T19:57:49.879Z,43.20
2023-04-30T20:00:22.739Z,43.20
2023-04-30T20:02:55.887Z,43.26
2023-04-30T20:05:28.822Z,43.24
2023-04-30T20:08:04.703Z,43.26
2023-04-30T20:10:38.261Z,43.30
2023-04-30T20:13:11.986Z,43.27
2023-04-30T20:15:45.139Z,43.31
2023-04-30T20:18:17.727Z,43.35
2023-04-30T20:20:51.858Z,43.35
2023-04-30T20:23:28.369Z,43.39
2023-04-30T20:26:02.052Z,43.37
2023-04-30T20:28:34.908Z,43.40
2023-04-30T20:31:08.101Z,43.41
2023-04-30T20:33:41.182Z,43.42
2023-04-30T20:36:14.140Z,43.47
2023-04-30T20:39:01.076Z,43.54
2023-04-30T20:41:34.133Z,43.54
2023-04-30T20:44:06.875Z,43.54
2023-04-30T20:46:39.943Z,43.57
2023-04-30T20:49:12.844Z,43.57
2023-04-30T20:51:46.200Z,43.58
2023-04-30T20:54:19.074Z,43.57
2023-04-30T20:56:51.929Z,43.54
2023-04-30T20:59:25.062Z,43.57
2023-04-30T21:01:58.106Z,43.57
2023-04-30T21:04:31.000Z,43.56
2023-04-30T21:07:04.072Z,43.57
2023-04-30T21:09:37.149Z,43.59
2023-04-30T21:12:10.051Z,43.61
2023-04-30T21:14:42.827Z,43.63
2023-04-30T21:17:16.107Z,43.63
2023-04-30T21:19:49.285Z,43.71
2023-04-30T21:22:23.076Z,43.72
2023-04-30T21:24:55.821Z,43.39
2023-04-30T21:27:28.926Z,42.97
2023-04-30T21:30:01.934Z,43.47
2023-04-30T21:32:35.054Z,43.47
2023-04-30T21:35:07.827Z,43.56
2023-04-30T21:37:41.062Z,43.62
2023-04-30T21:40:14.041Z,43.71
2023-04-30T21:42:47.003Z,43.71
2023-04-30T21:45:19.991Z,43.66
2023-04-30T21:47:53.065Z,43.80
2023-04-30T21:50:26.187Z,43.83
2023-04-30T21:53:02.793Z,43.79
2023-04-30T21:55:35.878Z,43.79
2023-04-30T21:58:08.912Z,43.84
2023-04-30T22:00:42.085Z,43.78
2023-04-30T22:03:15.044Z,43.74
2023-04-30T22:05:48.370Z,43.68
2023-04-30T22:08:21.861Z,43.82
2023-04-30T22:10:55.004Z,43.72
2023-04-30T22:13:27.894Z,43.79
2023-04-30T22:16:00.899Z,43.78
2023-04-30T22:18:34.060Z,43.79
2023-04-30T22:21:06.925Z,43.84
2023-04-30T22:23:40.070Z,43.85
2023-04-30T22:26:13.136Z,43.93
2023-04-30T22:28:46.006Z,43.96
2023-04-30T22:31:19.273Z,43.95
2023-04-30T22:33:51.938Z,43.96
2023-04-30T22:36:25.353Z,44.02
2023-04-30T22:38:59.101Z,43.98
2023-04-30T22:41:32.076Z,43.97
2023-04-30T22:44:04.911Z,44.04
2023-04-30T22:46:38.121Z,43.92
2023-04-30T22:49:19.918Z,44.12
2023-04-30T22:51:44.121Z,44.15
2023-04-30T22:54:17.159Z,44.17
2023-04-30T22:56:50.248Z,44.22
2023-04-30T22:59:23.220Z,44.17
2023-04-30T23:01:56.190Z,44.35
2023-04-30T23:04:29.097Z,44.61
2023-04-30T23:07:02.302Z,44.57
2023-04-30T23:09:35.482Z,44.49
2023-04-30T23:12:09.255Z,44.58
2023-04-30T23:14:42.344Z,44.59
2023-04-30T23:17:15.536Z,44.70
2023-04-30T23:19:49.083Z,44.75
2023-04-30T23:22:22.346Z,44.77
2023-04-30T23:24:55.264Z,44.87
2023-04-30T23:27:42.100Z,44.97
2023-04-30T23:30:15.295Z,45.04
2023-04-30T23:32:48.042Z,45.05
2023-04-30T23:35:21.397Z,45.16
2023-04-30T23:37:54.218Z,45.08
2023-04-30T23:40:27.306Z,45.22
2023-04-30T23:43:00.446Z,45.17
2023-04-30T23:45:33.083Z,45.07
2023-04-30T23:48:06.344Z,45.02
2023-04-30T23:50:39.308Z,45.06
2023-04-30T23:53:12.498Z,45.10
2023-04-30T23:55:46.379Z,45.11
2023-04-30T23:58:19.363Z,44.96
